sensor_id;sensor_type;location;lat;lon;timestamp;P1;durP1;ratioP1;P2;durP2;ratioP2
74541;SDS011;63015;45.378;20.360;2024-03-29T00:00:34;6.00;;;1.02;;
74541;SDS011;63015;45.378;20.360;2024-03-29T00:02:35;3.95;;;0.75;;
74541;SDS011;63015;45.378;20.360;2024-03-29T00:04:35;5.75;;;0.88;;
74541;SDS011;63015;45.378;20.360;2024-03-29T00:06:36;2.88;;;0.85;;
74541;SDS011;63015;45.378;20.360;2024-03-29T00:08:37;5.97;;;0.90;;
74541;SDS011;63015;45.378;20.360;2024-03-29T00:10:38;4.50;;;0.80;;
74541;SDS011;63015;45.378;20.360;2024-03-29T00:13:03;5.05;;;0.95;;
74541;SDS011;63015;45.378;20.360;2024-03-29T00:15:04;3.85;;;0.98;;
74541;SDS011;63015;45.378;20.360;2024-03-29T00:17:05;5.85;;;0.85;;
74541;SDS011;63015;45.378;20.360;2024-03-29T00:19:05;4.88;;;0.70;;
74541;SDS011;63015;45.378;20.360;2024-03-29T00:21:06;5.40;;;0.90;;
74541;SDS011;63015;45.378;20.360;2024-03-29T00:23:06;7.22;;;0.88;;
74541;SDS011;63015;45.378;20.360;2024-03-29T00:25:07;5.78;;;0.98;;
74541;SDS011;63015;45.378;20.360;2024-03-29T00:27:33;3.45;;;0.90;;
74541;SDS011;63015;45.378;20.360;2024-03-29T00:29:34;6.05;;;0.80;;
74541;SDS011;63015;45.378;20.360;2024-03-29T00:31:34;7.70;;;0.90;;
74541;SDS011;63015;45.378;20.360;2024-03-29T00:33:35;3.60;;;0.77;;
74541;SDS011;63015;45.378;20.360;2024-03-29T00:35:35;6.97;;;0.95;;
74541;SDS011;63015;45.378;20.360;2024-03-29T00:37:36;3.60;;;0.73;;
74541;SDS011;63015;45.378;20.360;2024-03-29T00:40:01;5.72;;;0.70;;
74541;SDS011;63015;45.378;20.360;2024-03-29T00:42:03;5.05;;;1.30;;
74541;SDS011;63015;45.378;20.360;2024-03-29T00:44:06;4.63;;;1.00;;
74541;SDS011;63015;45.378;20.360;2024-03-29T00:46:07;5.32;;;0.90;;
74541;SDS011;63015;45.378;20.360;2024-03-29T00:48:08;4.70;;;0.73;;
74541;SDS011;63015;45.378;20.360;2024-03-29T00:50:09;3.65;;;0.90;;
74541;SDS011;63015;45.378;20.360;2024-03-29T00:52:09;4.55;;;0.98;;
74541;SDS011;63015;45.378;20.360;2024-03-29T00:54:10;3.90;;;1.13;;
74541;SDS011;63015;45.378;20.360;2024-03-29T00:56:10;3.08;;;0.73;;
74541;SDS011;63015;45.378;20.360;2024-03-29T00:58:11;4.30;;;0.57;;
74541;SDS011;63015;45.378;20.360;2024-03-29T01:00:12;3.92;;;0.75;;
74541;SDS011;63015;45.378;20.360;2024-03-29T01:02:12;5.30;;;0.88;;
74541;SDS011;63015;45.378;20.360;2024-03-29T01:04:13;5.07;;;0.80;;
74541;SDS011;63015;45.378;20.360;2024-03-29T01:06:13;3.03;;;0.60;;
74541;SDS011;63015;45.378;20.360;2024-03-29T01:08:14;3.60;;;0.70;;
74541;SDS011;63015;45.378;20.360;2024-03-29T01:10:14;5.03;;;0.65;;
74541;SDS011;63015;45.378;20.360;2024-03-29T01:12:15;3.20;;;0.80;;
74541;SDS011;63015;45.378;20.360;2024-03-29T01:14:15;4.75;;;0.80;;
74541;SDS011;63015;45.378;20.360;2024-03-29T01:16:16;5.88;;;0.82;;
74541;SDS011;63015;45.378;20.360;2024-03-29T01:18:17;2.33;;;0.43;;
74541;SDS011;63015;45.378;20.360;2024-03-29T01:20:17;3.28;;;0.40;;
74541;SDS011;63015;45.378;20.360;2024-03-29T01:22:18;2.78;;;0.40;;
74541;SDS011;63015;45.378;20.360;2024-03-29T01:24:18;3.22;;;0.40;;
74541;SDS011;63015;45.378;20.360;2024-03-29T01:26:19;2.05;;;0.30;;
74541;SDS011;63015;45.378;20.360;2024-03-29T01:28:19;2.22;;;0.30;;
74541;SDS011;63015;45.378;20.360;2024-03-29T01:30:20;2.65;;;0.30;;
74541;SDS011;63015;45.378;20.360;2024-03-29T01:32:22;3.17;;;0.50;;
74541;SDS011;63015;45.378;20.360;2024-03-29T01:34:22;1.85;;;0.38;;
74541;SDS011;63015;45.378;20.360;2024-03-29T01:36:23;0.70;;;0.08;;
74541;SDS011;63015;45.378;20.360;2024-03-29T01:38:23;0.77;;;0.10;;
74541;SDS011;63015;45.378;20.360;2024-03-29T01:40:23;0.57;;;0.03;;
74541;SDS011;63015;45.378;20.360;2024-03-29T01:42:24;1.52;;;0.10;;
74541;SDS011;63015;45.378;20.360;2024-03-29T01:44:25;0.90;;;0.13;;
74541;SDS011;63015;45.378;20.360;2024-03-29T01:46:25;1.30;;;0.22;;
74541;SDS011;63015;45.378;20.360;2024-03-29T01:48:26;1.65;;;0.17;;
74541;SDS011;63015;45.378;20.360;2024-03-29T01:50:27;1.00;;;0.20;;
74541;SDS011;63015;45.378;20.360;2024-03-29T01:52:28;0.63;;;0.25;;
74541;SDS011;63015;45.378;20.360;2024-03-29T01:54:29;1.33;;;0.00;;
74541;SDS011;63015;45.378;20.360;2024-03-29T01:56:30;0.88;;;0.30;;
74541;SDS011;63015;45.378;20.360;2024-03-29T01:58:31;0.90;;;0.20;;
74541;SDS011;63015;45.378;20.360;2024-03-29T02:00:31;0.82;;;0.10;;
74541;SDS011;63015;45.378;20.360;2024-03-29T02:02:36;0.73;;;0.10;;
74541;SDS011;63015;45.378;20.360;2024-03-29T02:04:37;1.25;;;0.10;;
74541;SDS011;63015;45.378;20.360;2024-03-29T02:06:38;2.63;;;0.20;;
74541;SDS011;63015;45.378;20.360;2024-03-29T02:08:39;0.85;;;0.13;;
74541;SDS011;63015;45.378;20.360;2024-03-29T02:10:39;0.57;;;0.10;;
74541;SDS011;63015;45.378;20.360;2024-03-29T02:12:40;0.38;;;0.00;;
74541;SDS011;63015;45.378;20.360;2024-03-29T02:14:40;1.27;;;0.10;;
74541;SDS011;63015;45.378;20.360;2024-03-29T02:16:42;1.00;;;0.20;;
74541;SDS011;63015;45.378;20.360;2024-03-29T02:18:43;1.13;;;0.20;;
74541;SDS011;63015;45.378;20.360;2024-03-29T02:20:43;0.57;;;0.00;;
74541;SDS011;63015;45.378;20.360;2024-03-29T02:22:54;2.13;;;0.20;;
74541;SDS011;63015;45.378;20.360;2024-03-29T02:24:58;0.63;;;0.30;;
74541;SDS011;63015;45.378;20.360;2024-03-29T02:26:58;1.10;;;0.10;;
74541;SDS011;63015;45.378;20.360;2024-03-29T02:28:59;0.85;;;0.10;;
74541;SDS011;63015;45.378;20.360;2024-03-29T02:30:59;0.93;;;0.10;;
74541;SDS011;63015;45.378;20.360;2024-03-29T02:33:00;2.35;;;0.38;;
74541;SDS011;63015;45.378;20.360;2024-03-29T02:35:01;0.82;;;0.10;;
74541;SDS011;63015;45.378;20.360;2024-03-29T02:37:01;1.60;;;0.30;;
74541;SDS011;63015;45.378;20.360;2024-03-29T02:39:02;1.17;;;0.30;;
74541;SDS011;63015;45.378;20.360;2024-03-29T02:41:03;0.45;;;0.10;;
74541;SDS011;63015;45.378;20.360;2024-03-29T02:43:05;1.15;;;0.30;;
74541;SDS011;63015;45.378;20.360;2024-03-29T02:45:05;1.17;;;0.10;;
74541;SDS011;63015;45.378;20.360;2024-03-29T02:47:06;0.40;;;0.00;;
74541;SDS011;63015;45.378;20.360;2024-03-29T02:49:07;1.00;;;0.10;;
74541;SDS011;63015;45.378;20.360;2024-03-29T02:51:08;0.88;;;0.10;;
74541;SDS011;63015;45.378;20.360;2024-03-29T02:53:08;0.95;;;0.10;;
74541;SDS011;63015;45.378;20.360;2024-03-29T02:55:09;1.08;;;0.20;;
74541;SDS011;63015;45.378;20.360;2024-03-29T02:57:13;1.23;;;0.10;;
74541;SDS011;63015;45.378;20.360;2024-03-29T02:59:13;1.35;;;0.10;;
74541;SDS011;63015;45.378;20.360;2024-03-29T03:01:14;0.80;;;0.20;;
74541;SDS011;63015;45.378;20.360;2024-03-29T03:03:15;0.98;;;0.10;;
74541;SDS011;63015;45.378;20.360;2024-03-29T03:05:16;1.45;;;0.30;;
74541;SDS011;63015;45.378;20.360;2024-03-29T03:07:17;0.63;;;0.20;;
74541;SDS011;63015;45.378;20.360;2024-03-29T03:09:37;1.00;;;0.10;;
74541;SDS011;63015;45.378;20.360;2024-03-29T03:11:56;1.15;;;0.20;;
74541;SDS011;63015;45.378;20.360;2024-03-29T03:13:57;0.95;;;0.10;;
74541;SDS011;63015;45.378;20.360;2024-03-29T03:15:57;0.77;;;0.10;;
74541;SDS011;63015;45.378;20.360;2024-03-29T03:17:58;0.90;;;0.13;;
74541;SDS011;63015;45.378;20.360;2024-03-29T03:19:58;1.10;;;0.10;;
74541;SDS011;63015;45.378;20.360;2024-03-29T03:21:59;1.48;;;0.10;;
74541;SDS011;63015;45.378;20.360;2024-03-29T03:23:59;1.77;;;0.40;;
74541;SDS011;63015;45.378;20.360;2024-03-29T03:26:01;2.97;;;0.70;;
74541;SDS011;63015;45.378;20.360;2024-03-29T03:28:05;1.65;;;0.38;;
74541;SDS011;63015;45.378;20.360;2024-03-29T03:30:06;0.93;;;0.20;;
74541;SDS011;63015;45.378;20.360;2024-03-29T03:32:07;2.13;;;0.25;;
74541;SDS011;63015;45.378;20.360;2024-03-29T03:34:07;0.93;;;0.13;;
74541;SDS011;63015;45.378;20.360;2024-03-29T03:36:08;1.80;;;0.40;;
74541;SDS011;63015;45.378;20.360;2024-03-29T03:38:08;2.95;;;0.82;;
74541;SDS011;63015;45.378;20.360;2024-03-29T03:40:09;2.90;;;0.88;;
74541;SDS011;63015;45.378;20.360;2024-03-29T03:42:10;2.75;;;0.52;;
74541;SDS011;63015;45.378;20.360;2024-03-29T03:44:10;3.30;;;0.60;;
74541;SDS011;63015;45.378;20.360;2024-03-29T03:46:11;2.17;;;0.30;;
74541;SDS011;63015;45.378;20.360;2024-03-29T03:48:11;2.28;;;0.40;;
74541;SDS011;63015;45.378;20.360;2024-03-29T03:50:12;2.88;;;0.40;;
74541;SDS011;63015;45.378;20.360;2024-03-29T03:52:12;2.40;;;0.82;;
74541;SDS011;63015;45.378;20.360;2024-03-29T03:54:13;2.20;;;0.45;;
74541;SDS011;63015;45.378;20.360;2024-03-29T03:56:13;2.75;;;0.50;;
74541;SDS011;63015;45.378;20.360;2024-03-29T03:58:14;1.70;;;0.50;;
74541;SDS011;63015;45.378;20.360;2024-03-29T04:00:15;1.73;;;0.45;;
74541;SDS011;63015;45.378;20.360;2024-03-29T04:02:16;2.70;;;0.50;;
74541;SDS011;63015;45.378;20.360;2024-03-29T04:04:17;3.35;;;0.75;;
74541;SDS011;63015;45.378;20.360;2024-03-29T04:06:18;2.25;;;0.60;;
74541;SDS011;63015;45.378;20.360;2024-03-29T04:08:18;1.65;;;0.38;;
74541;SDS011;63015;45.378;20.360;2024-03-29T04:10:19;2.33;;;0.40;;
74541;SDS011;63015;45.378;20.360;2024-03-29T04:12:19;2.10;;;0.70;;
74541;SDS011;63015;45.378;20.360;2024-03-29T04:14:20;3.13;;;0.60;;
74541;SDS011;63015;45.378;20.360;2024-03-29T04:16:20;1.52;;;0.30;;
74541;SDS011;63015;45.378;20.360;2024-03-29T04:18:21;7.05;;;0.60;;
74541;SDS011;63015;45.378;20.360;2024-03-29T04:20:21;2.70;;;1.00;;
74541;SDS011;63015;45.378;20.360;2024-03-29T04:22:22;2.22;;;1.00;;
74541;SDS011;63015;45.378;20.360;2024-03-29T04:24:23;2.72;;;0.70;;
74541;SDS011;63015;45.378;20.360;2024-03-29T04:26:23;3.33;;;0.80;;
74541;SDS011;63015;45.378;20.360;2024-03-29T04:28:24;2.08;;;0.70;;
74541;SDS011;63015;45.378;20.360;2024-03-29T04:30:25;1.83;;;0.43;;
74541;SDS011;63015;45.378;20.360;2024-03-29T04:32:26;2.10;;;0.35;;
74541;SDS011;63015;45.378;20.360;2024-03-29T04:34:26;3.70;;;0.30;;
74541;SDS011;63015;45.378;20.360;2024-03-29T04:36:27;1.52;;;0.30;;
74541;SDS011;63015;45.378;20.360;2024-03-29T04:38:28;3.10;;;0.30;;
74541;SDS011;63015;45.378;20.360;2024-03-29T04:40:28;1.63;;;0.50;;
74541;SDS011;63015;45.378;20.360;2024-03-29T04:42:29;1.80;;;0.38;;
74541;SDS011;63015;45.378;20.360;2024-03-29T04:44:30;2.70;;;0.50;;
74541;SDS011;63015;45.378;20.360;2024-03-29T04:46:30;3.30;;;0.90;;
74541;SDS011;63015;45.378;20.360;2024-03-29T04:48:31;3.10;;;0.43;;
74541;SDS011;63015;45.378;20.360;2024-03-29T04:50:32;3.85;;;0.85;;
74541;SDS011;63015;45.378;20.360;2024-03-29T04:52:32;3.65;;;0.57;;
74541;SDS011;63015;45.378;20.360;2024-03-29T04:54:33;3.22;;;0.68;;
74541;SDS011;63015;45.378;20.360;2024-03-29T04:56:34;4.97;;;2.90;;
74541;SDS011;63015;45.378;20.360;2024-03-29T04:58:36;3.92;;;2.03;;
74541;SDS011;63015;45.378;20.360;2024-03-29T05:00:37;5.95;;;1.08;;
74541;SDS011;63015;45.378;20.360;2024-03-29T05:02:37;2.42;;;0.60;;
74541;SDS011;63015;45.378;20.360;2024-03-29T05:04:38;2.78;;;0.60;;
74541;SDS011;63015;45.378;20.360;2024-03-29T05:06:38;2.28;;;0.60;;
74541;SDS011;63015;45.378;20.360;2024-03-29T05:08:39;2.25;;;0.30;;
74541;SDS011;63015;45.378;20.360;2024-03-29T05:10:39;2.50;;;0.68;;
74541;SDS011;63015;45.378;20.360;2024-03-29T05:12:40;2.05;;;0.50;;
74541;SDS011;63015;45.378;20.360;2024-03-29T05:14:41;5.70;;;0.70;;
74541;SDS011;63015;45.378;20.360;2024-03-29T05:16:41;3.65;;;0.60;;
74541;SDS011;63015;45.378;20.360;2024-03-29T05:18:42;2.83;;;0.70;;
74541;SDS011;63015;45.378;20.360;2024-03-29T05:20:42;3.78;;;0.60;;
74541;SDS011;63015;45.378;20.360;2024-03-29T05:22:47;2.53;;;0.60;;
74541;SDS011;63015;45.378;20.360;2024-03-29T05:24:47;3.08;;;0.70;;
74541;SDS011;63015;45.378;20.360;2024-03-29T05:26:48;4.82;;;1.50;;
74541;SDS011;63015;45.378;20.360;2024-03-29T05:28:48;5.80;;;1.60;;
74541;SDS011;63015;45.378;20.360;2024-03-29T05:30:49;3.85;;;1.30;;
74541;SDS011;63015;45.378;20.360;2024-03-29T05:32:49;5.32;;;1.60;;
74541;SDS011;63015;45.378;20.360;2024-03-29T05:34:50;5.72;;;1.65;;
74541;SDS011;63015;45.378;20.360;2024-03-29T05:36:50;3.58;;;1.00;;
74541;SDS011;63015;45.378;20.360;2024-03-29T05:38:51;3.95;;;0.90;;
74541;SDS011;63015;45.378;20.360;2024-03-29T05:40:51;5.07;;;1.33;;
74541;SDS011;63015;45.378;20.360;2024-03-29T05:42:52;7.88;;;2.30;;
74541;SDS011;63015;45.378;20.360;2024-03-29T05:44:53;5.68;;;1.40;;
74541;SDS011;63015;45.378;20.360;2024-03-29T05:46:53;5.88;;;1.70;;
74541;SDS011;63015;45.378;20.360;2024-03-29T05:48:54;7.22;;;1.98;;
74541;SDS011;63015;45.378;20.360;2024-03-29T05:50:55;8.15;;;3.15;;
74541;SDS011;63015;45.378;20.360;2024-03-29T05:52:55;15.02;;;6.05;;
74541;SDS011;63015;45.378;20.360;2024-03-29T05:54:56;16.75;;;6.95;;
74541;SDS011;63015;45.378;20.360;2024-03-29T05:56:57;17.40;;;7.05;;
74541;SDS011;63015;45.378;20.360;2024-03-29T05:58:57;9.10;;;3.47;;
74541;SDS011;63015;45.378;20.360;2024-03-29T06:00:58;9.05;;;2.83;;
74541;SDS011;63015;45.378;20.360;2024-03-29T06:03:23;6.78;;;2.08;;
74541;SDS011;63015;45.378;20.360;2024-03-29T06:05:23;6.90;;;2.03;;
74541;SDS011;63015;45.378;20.360;2024-03-29T06:07:24;4.28;;;1.50;;
74541;SDS011;63015;45.378;20.360;2024-03-29T06:09:24;4.85;;;1.80;;
74541;SDS011;63015;45.378;20.360;2024-03-29T06:11:25;4.25;;;1.13;;
74541;SDS011;63015;45.378;20.360;2024-03-29T06:13:25;3.63;;;1.10;;
74541;SDS011;63015;45.378;20.360;2024-03-29T06:15:49;4.28;;;1.17;;
74541;SDS011;63015;45.378;20.360;2024-03-29T06:18:08;3.08;;;0.70;;
74541;SDS011;63015;45.378;20.360;2024-03-29T06:20:11;2.92;;;0.70;;
74541;SDS011;63015;45.378;20.360;2024-03-29T06:22:11;3.05;;;0.70;;
74541;SDS011;63015;45.378;20.360;2024-03-29T06:24:12;5.35;;;0.50;;
74541;SDS011;63015;45.378;20.360;2024-03-29T06:26:12;2.58;;;0.52;;
74541;SDS011;63015;45.378;20.360;2024-03-29T06:28:13;2.90;;;0.80;;
74541;SDS011;63015;45.378;20.360;2024-03-29T06:30:14;2.75;;;0.63;;
74541;SDS011;63015;45.378;20.360;2024-03-29T06:32:19;4.40;;;0.80;;
74541;SDS011;63015;45.378;20.360;2024-03-29T06:34:19;6.15;;;0.75;;
74541;SDS011;63015;45.378;20.360;2024-03-29T06:36:20;4.47;;;1.10;;
74541;SDS011;63015;45.378;20.360;2024-03-29T06:38:21;8.75;;;0.90;;
74541;SDS011;63015;45.378;20.360;2024-03-29T06:40:21;3.05;;;0.60;;
74541;SDS011;63015;45.378;20.360;2024-03-29T06:42:22;2.85;;;0.80;;
74541;SDS011;63015;45.378;20.360;2024-03-29T06:44:47;3.75;;;0.77;;
74541;SDS011;63015;45.378;20.360;2024-03-29T06:46:48;3.53;;;0.77;;
74541;SDS011;63015;45.378;20.360;2024-03-29T06:48:49;3.08;;;0.75;;
74541;SDS011;63015;45.378;20.360;2024-03-29T06:50:49;2.70;;;0.60;;
74541;SDS011;63015;45.378;20.360;2024-03-29T06:52:50;2.72;;;0.40;;
74541;SDS011;63015;45.378;20.360;2024-03-29T06:54:50;2.15;;;0.45;;
74541;SDS011;63015;45.378;20.360;2024-03-29T06:56:51;2.10;;;0.40;;
74541;SDS011;63015;45.378;20.360;2024-03-29T06:58:52;4.47;;;0.80;;
74541;SDS011;63015;45.378;20.360;2024-03-29T07:00:52;2.97;;;1.00;;
74541;SDS011;63015;45.378;20.360;2024-03-29T07:02:53;3.60;;;0.80;;
74541;SDS011;63015;45.378;20.360;2024-03-29T07:04:53;2.92;;;0.55;;
74541;SDS011;63015;45.378;20.360;2024-03-29T07:06:54;4.45;;;0.50;;
74541;SDS011;63015;45.378;20.360;2024-03-29T07:08:54;3.03;;;0.40;;
74541;SDS011;63015;45.378;20.360;2024-03-29T07:10:59;2.45;;;0.40;;
74541;SDS011;63015;45.378;20.360;2024-03-29T07:13:00;2.53;;;0.57;;
74541;SDS011;63015;45.378;20.360;2024-03-29T07:15:00;2.83;;;0.47;;
74541;SDS011;63015;45.378;20.360;2024-03-29T07:17:01;2.55;;;0.32;;
74541;SDS011;63015;45.378;20.360;2024-03-29T07:19:03;3.25;;;0.40;;
74541;SDS011;63015;45.378;20.360;2024-03-29T07:21:28;2.08;;;0.43;;
74541;SDS011;63015;45.378;20.360;2024-03-29T07:23:28;5.90;;;0.70;;
74541;SDS011;63015;45.378;20.360;2024-03-29T07:25:29;2.20;;;0.47;;
74541;SDS011;63015;45.378;20.360;2024-03-29T07:27:31;3.45;;;0.82;;
74541;SDS011;63015;45.378;20.360;2024-03-29T07:30:00;2.75;;;0.30;;
74541;SDS011;63015;45.378;20.360;2024-03-29T07:32:00;1.48;;;0.30;;
74541;SDS011;63015;45.378;20.360;2024-03-29T07:34:25;1.92;;;0.45;;
74541;SDS011;63015;45.378;20.360;2024-03-29T07:36:26;6.38;;;0.77;;
74541;SDS011;63015;45.378;20.360;2024-03-29T07:38:31;1.85;;;0.40;;
74541;SDS011;63015;45.378;20.360;2024-03-29T07:40:32;2.33;;;0.40;;
74541;SDS011;63015;45.378;20.360;2024-03-29T07:42:32;2.33;;;0.50;;
74541;SDS011;63015;45.378;20.360;2024-03-29T07:44:32;1.48;;;0.30;;
74541;SDS011;63015;45.378;20.360;2024-03-29T07:46:33;2.63;;;0.47;;
74541;SDS011;63015;45.378;20.360;2024-03-29T07:48:36;2.53;;;0.30;;
74541;SDS011;63015;45.378;20.360;2024-03-29T07:50:37;2.63;;;0.40;;
74541;SDS011;63015;45.378;20.360;2024-03-29T07:52:38;1.40;;;0.20;;
74541;SDS011;63015;45.378;20.360;2024-03-29T07:54:38;0.85;;;0.10;;
74541;SDS011;63015;45.378;20.360;2024-03-29T07:56:39;1.13;;;0.10;;
74541;SDS011;63015;45.378;20.360;2024-03-29T07:58:39;1.40;;;0.30;;
74541;SDS011;63015;45.378;20.360;2024-03-29T08:00:40;2.45;;;0.32;;
74541;SDS011;63015;45.378;20.360;2024-03-29T08:02:43;2.88;;;0.82;;
74541;SDS011;63015;45.378;20.360;2024-03-29T08:04:44;2.95;;;0.30;;
74541;SDS011;63015;45.378;20.360;2024-03-29T08:06:44;3.72;;;0.30;;
74541;SDS011;63015;45.378;20.360;2024-03-29T08:08:45;2.13;;;0.30;;
74541;SDS011;63015;45.378;20.360;2024-03-29T08:10:48;4.38;;;0.30;;
74541;SDS011;63015;45.378;20.360;2024-03-29T08:12:49;2.15;;;0.40;;
74541;SDS011;63015;45.378;20.360;2024-03-29T08:14:49;2.03;;;0.40;;
74541;SDS011;63015;45.378;20.360;2024-03-29T08:16:50;2.67;;;0.38;;
74541;SDS011;63015;45.378;20.360;2024-03-29T08:18:51;2.40;;;0.32;;
74541;SDS011;63015;45.378;20.360;2024-03-29T08:20:52;1.88;;;0.40;;
74541;SDS011;63015;45.378;20.360;2024-03-29T08:22:56;3.35;;;0.40;;
74541;SDS011;63015;45.378;20.360;2024-03-29T08:24:58;1.63;;;0.43;;
74541;SDS011;63015;45.378;20.360;2024-03-29T08:27:24;2.28;;;0.32;;
74541;SDS011;63015;45.378;20.360;2024-03-29T08:29:26;3.78;;;0.60;;
74541;SDS011;63015;45.378;20.360;2024-03-29T08:31:27;2.70;;;0.57;;
74541;SDS011;63015;45.378;20.360;2024-03-29T08:33:27;4.47;;;0.50;;
74541;SDS011;63015;45.378;20.360;2024-03-29T08:35:28;4.45;;;0.55;;
74541;SDS011;63015;45.378;20.360;2024-03-29T08:37:29;4.47;;;0.80;;
74541;SDS011;63015;45.378;20.360;2024-03-29T08:39:31;3.08;;;0.40;;
74541;SDS011;63015;45.378;20.360;2024-03-29T08:41:32;3.95;;;0.70;;
74541;SDS011;63015;45.378;20.360;2024-03-29T08:43:32;3.85;;;0.50;;
74541;SDS011;63015;45.378;20.360;2024-03-29T08:45:33;3.65;;;0.45;;
74541;SDS011;63015;45.378;20.360;2024-03-29T08:47:58;2.83;;;0.55;;
74541;SDS011;63015;45.378;20.360;2024-03-29T08:49:58;4.05;;;0.50;;
74541;SDS011;63015;45.378;20.360;2024-03-29T08:51:59;4.47;;;0.40;;
74541;SDS011;63015;45.378;20.360;2024-03-29T08:54:02;3.10;;;0.60;;
74541;SDS011;63015;45.378;20.360;2024-03-29T08:56:05;3.22;;;0.75;;
74541;SDS011;63015;45.378;20.360;2024-03-29T08:58:05;6.25;;;0.50;;
74541;SDS011;63015;45.378;20.360;2024-03-29T09:00:08;5.13;;;0.60;;
74541;SDS011;63015;45.378;20.360;2024-03-29T09:02:08;4.45;;;0.60;;
74541;SDS011;63015;45.378;20.360;2024-03-29T09:04:09;2.35;;;0.32;;
74541;SDS011;63015;45.378;20.360;2024-03-29T09:06:11;3.53;;;0.57;;
74541;SDS011;63015;45.378;20.360;2024-03-29T09:08:11;4.45;;;0.60;;
74541;SDS011;63015;45.378;20.360;2024-03-29T09:10:13;4.70;;;0.70;;
74541;SDS011;63015;45.378;20.360;2024-03-29T09:12:14;4.38;;;0.85;;
74541;SDS011;63015;45.378;20.360;2024-03-29T09:14:14;2.63;;;0.45;;
74541;SDS011;63015;45.378;20.360;2024-03-29T09:16:15;4.07;;;0.77;;
74541;SDS011;63015;45.378;20.360;2024-03-29T09:18:15;3.85;;;0.50;;
74541;SDS011;63015;45.378;20.360;2024-03-29T09:20:19;3.53;;;0.77;;
74541;SDS011;63015;45.378;20.360;2024-03-29T09:22:20;5.68;;;0.68;;
74541;SDS011;63015;45.378;20.360;2024-03-29T09:24:20;6.07;;;0.70;;
74541;SDS011;63015;45.378;20.360;2024-03-29T09:26:22;5.20;;;0.70;;
74541;SDS011;63015;45.378;20.360;2024-03-29T09:28:23;3.85;;;0.75;;
74541;SDS011;63015;45.378;20.360;2024-03-29T09:30:24;4.05;;;0.60;;
74541;SDS011;63015;45.378;20.360;2024-03-29T09:32:24;3.75;;;0.88;;
74541;SDS011;63015;45.378;20.360;2024-03-29T09:34:25;3.20;;;0.40;;
74541;SDS011;63015;45.378;20.360;2024-03-29T09:36:25;5.05;;;0.60;;
74541;SDS011;63015;45.378;20.360;2024-03-29T09:38:26;3.90;;;0.70;;
74541;SDS011;63015;45.378;20.360;2024-03-29T09:40:27;3.92;;;0.65;;
74541;SDS011;63015;45.378;20.360;2024-03-29T09:42:29;3.28;;;0.65;;
74541;SDS011;63015;45.378;20.360;2024-03-29T09:44:33;3.15;;;0.55;;
74541;SDS011;63015;45.378;20.360;2024-03-29T09:46:37;4.93;;;0.85;;
74541;SDS011;63015;45.378;20.360;2024-03-29T09:48:40;5.45;;;0.60;;
74541;SDS011;63015;45.378;20.360;2024-03-29T09:50:41;4.00;;;0.70;;
74541;SDS011;63015;45.378;20.360;2024-03-29T09:52:42;3.97;;;0.77;;
74541;SDS011;63015;45.378;20.360;2024-03-29T09:54:43;6.68;;;0.65;;
74541;SDS011;63015;45.378;20.360;2024-03-29T09:56:44;3.10;;;0.60;;
74541;SDS011;63015;45.378;20.360;2024-03-29T09:58:44;4.85;;;0.77;;
74541;SDS011;63015;45.378;20.360;2024-03-29T10:00:45;4.97;;;0.73;;
74541;SDS011;63015;45.378;20.360;2024-03-29T10:02:45;6.07;;;0.70;;
74541;SDS011;63015;45.378;20.360;2024-03-29T10:04:50;4.60;;;0.60;;
74541;SDS011;63015;45.378;20.360;2024-03-29T10:06:53;4.40;;;0.60;;
74541;SDS011;63015;45.378;20.360;2024-03-29T10:08:55;5.78;;;0.70;;
74541;SDS011;63015;45.378;20.360;2024-03-29T10:10:58;4.40;;;0.60;;
74541;SDS011;63015;45.378;20.360;2024-03-29T10:12:58;4.78;;;0.70;;
74541;SDS011;63015;45.378;20.360;2024-03-29T10:14:59;4.53;;;0.60;;
74541;SDS011;63015;45.378;20.360;2024-03-29T10:17:09;5.22;;;0.70;;
74541;SDS011;63015;45.378;20.360;2024-03-29T10:19:11;4.65;;;0.77;;
74541;SDS011;63015;45.378;20.360;2024-03-29T10:21:12;5.38;;;0.73;;
74541;SDS011;63015;45.378;20.360;2024-03-29T10:23:12;4.03;;;0.63;;
74541;SDS011;63015;45.378;20.360;2024-03-29T10:25:39;6.03;;;0.90;;
74541;SDS011;63015;45.378;20.360;2024-03-29T10:27:40;5.47;;;0.90;;
74541;SDS011;63015;45.378;20.360;2024-03-29T10:29:41;9.68;;;1.75;;
74541;SDS011;63015;45.378;20.360;2024-03-29T10:31:41;4.22;;;0.90;;
74541;SDS011;63015;45.378;20.360;2024-03-29T10:33:43;5.90;;;1.27;;
74541;SDS011;63015;45.378;20.360;2024-03-29T10:35:48;6.50;;;1.15;;
74541;SDS011;63015;45.378;20.360;2024-03-29T10:37:49;7.05;;;1.30;;
74541;SDS011;63015;45.378;20.360;2024-03-29T10:39:50;5.60;;;1.10;;
74541;SDS011;63015;45.378;20.360;2024-03-29T10:41:50;4.43;;;0.70;;
74541;SDS011;63015;45.378;20.360;2024-03-29T10:44:17;3.42;;;0.90;;
74541;SDS011;63015;45.378;20.360;2024-03-29T10:46:20;9.45;;;1.02;;
74541;SDS011;63015;45.378;20.360;2024-03-29T10:48:21;7.80;;;0.93;;
74541;SDS011;63015;45.378;20.360;2024-03-29T10:50:22;5.60;;;0.90;;
74541;SDS011;63015;45.378;20.360;2024-03-29T10:52:24;6.85;;;0.90;;
74541;SDS011;63015;45.378;20.360;2024-03-29T10:54:26;5.65;;;0.65;;
74541;SDS011;63015;45.378;20.360;2024-03-29T10:56:28;4.93;;;0.82;;
74541;SDS011;63015;45.378;20.360;2024-03-29T10:58:30;6.00;;;1.02;;
74541;SDS011;63015;45.378;20.360;2024-03-29T11:00:36;8.35;;;1.23;;
74541;SDS011;63015;45.378;20.360;2024-03-29T11:04:47;6.65;;;0.98;;
74541;SDS011;63015;45.378;20.360;2024-03-29T11:07:15;6.65;;;1.00;;
74541;SDS011;63015;45.378;20.360;2024-03-29T11:09:22;6.68;;;0.90;;
74541;SDS011;63015;45.378;20.360;2024-03-29T11:11:29;6.68;;;0.60;;
74541;SDS011;63015;45.378;20.360;2024-03-29T11:15:47;4.57;;;0.80;;
74541;SDS011;63015;45.378;20.360;2024-03-29T11:17:50;6.68;;;1.02;;
74541;SDS011;63015;45.378;20.360;2024-03-29T11:19:51;6.30;;;0.80;;
74541;SDS011;63015;45.378;20.360;2024-03-29T11:21:52;6.30;;;1.13;;
74541;SDS011;63015;45.378;20.360;2024-03-29T11:23:54;6.20;;;0.85;;
74541;SDS011;63015;45.378;20.360;2024-03-29T11:25:57;4.40;;;0.80;;
74541;SDS011;63015;45.378;20.360;2024-03-29T11:28:06;4.65;;;0.90;;
74541;SDS011;63015;45.378;20.360;2024-03-29T11:30:33;7.63;;;1.38;;
74541;SDS011;63015;45.378;20.360;2024-03-29T11:32:40;10.55;;;0.95;;
74541;SDS011;63015;45.378;20.360;2024-03-29T11:35:13;5.82;;;1.02;;
74541;SDS011;63015;45.378;20.360;2024-03-29T11:37:15;6.03;;;0.77;;
74541;SDS011;63015;45.378;20.360;2024-03-29T11:39:23;6.13;;;0.70;;
74541;SDS011;63015;45.378;20.360;2024-03-29T11:41:24;8.18;;;1.58;;
74541;SDS011;63015;45.378;20.360;2024-03-29T11:43:26;7.32;;;1.05;;
74541;SDS011;63015;45.378;20.360;2024-03-29T11:45:28;5.10;;;0.90;;
74541;SDS011;63015;45.378;20.360;2024-03-29T11:47:33;4.45;;;0.82;;
74541;SDS011;63015;45.378;20.360;2024-03-29T11:49:34;8.35;;;1.10;;
74541;SDS011;63015;45.378;20.360;2024-03-29T11:51:34;4.65;;;0.85;;
74541;SDS011;63015;45.378;20.360;2024-03-29T11:53:35;6.75;;;0.95;;
74541;SDS011;63015;45.378;20.360;2024-03-29T11:55:36;7.80;;;1.30;;
74541;SDS011;63015;45.378;20.360;2024-03-29T11:57:36;5.18;;;1.00;;
74541;SDS011;63015;45.378;20.360;2024-03-29T11:59:40;7.90;;;1.02;;
74541;SDS011;63015;45.378;20.360;2024-03-29T12:01:41;4.88;;;0.98;;
74541;SDS011;63015;45.378;20.360;2024-03-29T12:03:42;4.70;;;0.85;;
74541;SDS011;63015;45.378;20.360;2024-03-29T12:05:44;4.93;;;1.00;;
74541;SDS011;63015;45.378;20.360;2024-03-29T12:07:45;6.95;;;1.10;;
74541;SDS011;63015;45.378;20.360;2024-03-29T12:09:46;5.05;;;1.10;;